East Franklin, Vermont
Current Conditions -  °F | °C
As of 2:35 PM on Friday 24 Oct 2014 (Local Time) from KFSO Reporting Station
Overcast Overcast  
Wind Chill:   Ceiling: 2100
Heat Index:   Visibility: 10mi
Dew Point:   Wind: 5mph
Humidity: 76%   Direction: 350°N
Pressure: 29.83"   Gusts: NA
Location:  44.9656°N, 72.8975°W
Report Text: KFSO 241835Z AUTO 35004KT 10SM OVC021 08/04 A2983 RMK AO2 T00840044
Loading
Personal Weather Stations






























Interactive Weather Map
Tropical Storm Tracking
New forecast layout! Learn more

10-Day Weather Forecast

Advertisements
Track Severe Weather on mobile